Airfield :
LOGIN :

Register | Disclaimer

   EN    FR    IT 

 










Legend :    VFR   Marginal VFR   IFR   Intensive IFR   Very Intensive IFR
Visi :
Ceiling :
>= 8 km
>= 3000ft
5 to 8 km
1000 to 3000 ft
1500m to 5 km
500 to 1000 ft
800 to 1500m
200 to 500 ft
< 800m
< 200 ft
Symbols :   Thunderstorms  Fog  Heavy snow  Heavy precipitations  Wind > 20 kt
SIGMETs :     Misc.  Thunderstorms  Icing  Turbulence  Mountain Waves  Volcanic Ashes







- Airport Elevation : 511 ft
- IATA code : LHA


EDTL - Lahr Schwarzwald

CURRENT METAR :
  • 231650Z 20005KT 170V240 CAVOK 16/14 Q1018

EXPIRED METARs :
  • 231620Z 18008KT CAVOK 16/14 Q1018
  • 231550Z 19008KT 160V220 9999 -RA FEW011 BKN066 16/14 Q1018
  • 231520Z 18007KT 9999 -RA NSC 16/15 Q1018
  • 231450Z 20006KT 8000 -RA NSC 15/14 Q1018
  • 231420Z 21008KT 9999 -RA NSC 16/14 Q1018

TAF TAF EDTL
Valid from the 23 at 15:00 until the 24 at 00:00 UTC


231400Z 2315/2324 21007KT 9999 FEW030
PROB40
TEMPO 2315/2318 28015G25KT 4500 TSRA SCT035CB
PROB30
TEMPO 2316/2319 RA BKN007
BECMG 2319/2321 VRB03KT
TEMPO 2322/2324 4000 BR
No reported NOTAMs for that airfield.
1 SIGMET reported for the Langen FIR (EDGG) :
 
Squall lined thunderstorms
EDGG SIGMET 5 VALID 231555/231745 EDZF
EDGG LANGEN FIR SQL TS OBS APRX 25NM WID LINE BTN N5002 E01026 - N4929 E00844 TOP FL370 MOV E WKN=



MET'MAP, your aeronautical weather chart ! - Copyright ORBIFLY December 2007 - Disclaimer

ORBIFLY MET'MAP TEAM :

Programming & Development : Alexandra Zaïnal
Concept & Development : Baudouin d'Aumeries
Co-Development & Prog : Marc-Olivier Méhu
Technical & hardware support : Manuel Goepfert

Contact : metmap@orbifly.com




SOURCES & CREDITS :

   NOAA